createdAt,value
2023-02-11T00:01:35.533Z,83.44
2023-02-11T00:04:04.953Z,83.63
2023-02-11T00:06:34.490Z,83.59
2023-02-11T00:09:02.978Z,83.35
2023-02-11T00:11:31.021Z,83.29
2023-02-11T00:14:02.391Z,83.48
2023-02-11T00:16:32.572Z,83.63
2023-02-11T00:19:01.901Z,83.37
2023-02-11T00:21:30.237Z,83.26
2023-02-11T00:24:00.059Z,83.04
2023-02-11T00:26:32.128Z,83.21
2023-02-11T00:29:01.127Z,83.13
2023-02-11T00:31:29.788Z,83.16
2023-02-11T00:33:57.871Z,83.17
2023-02-11T00:36:28.445Z,83.09
2023-02-11T00:38:58.001Z,83.10
2023-02-11T00:41:26.568Z,82.80
2023-02-11T00:43:54.564Z,82.92
2023-02-11T00:46:23.684Z,83.01
2023-02-11T00:48:53.361Z,82.77
2023-02-11T00:51:22.854Z,82.36
2023-02-11T00:53:52.204Z,82.44
2023-02-11T00:56:21.152Z,82.54
2023-02-11T00:58:49.123Z,82.80
2023-02-11T01:01:18.624Z,82.51
2023-02-11T01:03:46.797Z,82.55
2023-02-11T01:06:15.035Z,82.59
2023-02-11T01:08:43.067Z,82.48
2023-02-11T01:11:15.330Z,82.37
2023-02-11T01:13:47.731Z,82.49
2023-02-11T01:16:18.003Z,82.45
2023-02-11T01:18:47.034Z,82.27
2023-02-11T01:21:15.101Z,82.47
2023-02-11T01:23:44.627Z,82.45
2023-02-11T01:26:13.786Z,82.27
2023-02-11T01:28:41.858Z,82.24
2023-02-11T01:31:09.774Z,82.52
2023-02-11T01:33:37.998Z,82.28
2023-02-11T01:36:08.416Z,82.37
2023-02-11T01:38:36.920Z,82.57
2023-02-11T01:41:09.381Z,82.35
2023-02-11T01:43:44.115Z,82.30
2023-02-11T01:46:29.888Z,82.22
2023-02-11T01:49:42.397Z,82.36
2023-02-11T01:52:19.887Z,82.31
2023-02-11T01:55:13.086Z,82.38
2023-02-11T01:57:45.431Z,82.20
2023-02-11T02:00:22.518Z,82.63
2023-02-11T02:03:12.588Z,82.19
2023-02-11T02:05:49.434Z,82.10
2023-02-11T02:08:23.482Z,82.33
2023-02-11T02:10:56.577Z,82.35
2023-02-11T02:13:25.965Z,82.02
2023-02-11T02:15:56.770Z,82.08
2023-02-11T02:18:27.537Z,81.89
2023-02-11T02:21:22.143Z,82.08
2023-02-11T02:24:14.102Z,82.15
2023-02-11T02:27:13.605Z,82.15
2023-02-11T02:29:44.191Z,81.92
2023-02-11T02:32:33.488Z,81.95
2023-02-11T02:35:19.496Z,81.65
2023-02-11T02:37:50.309Z,81.79
2023-02-11T02:40:31.557Z,81.52
2023-02-11T02:43:01.490Z,81.52
2023-02-11T02:45:29.551Z,81.33
2023-02-11T02:47:57.433Z,81.87
2023-02-11T02:50:31.370Z,81.50
2023-02-11T02:53:17.323Z,81.71
2023-02-11T02:56:12.490Z,81.66
2023-02-11T02:59:03.773Z,81.79
2023-02-11T03:01:40.105Z,81.78
2023-02-11T03:04:39.151Z,81.70
2023-02-11T03:07:27.937Z,81.44
2023-02-11T03:10:04.800Z,81.78
2023-02-11T03:12:34.978Z,81.30
2023-02-11T03:15:06.070Z,81.38
2023-02-11T03:17:36.614Z,81.23
2023-02-11T03:20:07.089Z,81.29
2023-02-11T03:22:48.019Z,81.43
2023-02-11T03:25:16.729Z,81.44
2023-02-11T03:27:58.301Z,81.28
2023-02-11T03:30:32.594Z,81.50
2023-02-11T03:33:26.008Z,81.23
2023-02-11T03:35:58.578Z,81.04
2023-02-11T03:38:33.120Z,80.97
2023-02-11T03:41:04.839Z,80.55
2023-02-11T03:43:38.829Z,80.47
2023-02-11T03:46:09.722Z,80.64
2023-02-11T03:48:42.217Z,80.18
2023-02-11T03:51:12.635Z,80.53
2023-02-11T03:53:45.096Z,80.30
2023-02-11T03:56:19.668Z,80.49
2023-02-11T03:58:48.856Z,80.14
2023-02-11T04:01:16.785Z,80.03
2023-02-11T04:03:44.719Z,80.22
2023-02-11T04:06:12.548Z,79.94
2023-02-11T04:08:40.365Z,79.64
2023-02-11T04:11:08.291Z,79.82
2023-02-11T04:13:36.057Z,80.05
2023-02-11T04:16:04.018Z,79.72
2023-02-11T04:18:33.140Z,79.76
2023-02-11T04:21:01.028Z,79.58
2023-02-11T04:23:29.388Z,79.66
2023-02-11T04:25:57.281Z,79.47
2023-02-11T04:28:26.968Z,79.07
2023-02-11T04:30:55.980Z,79.17
2023-02-11T04:33:24.542Z,79.18
2023-02-11T04:35:52.689Z,79.12
2023-02-11T04:38:20.798Z,79.35
2023-02-11T04:40:48.602Z,79.10
2023-02-11T04:43:16.519Z,79.54
2023-02-11T04:45:44.468Z,79.28
2023-02-11T04:48:12.272Z,79.37
2023-02-11T04:50:40.223Z,79.34
2023-02-11T04:53:08.219Z,79.27
2023-02-11T04:55:36.360Z,79.25
2023-02-11T04:58:04.327Z,79.10
2023-02-11T05:00:32.431Z,79.41
2023-02-11T05:03:00.251Z,79.20
2023-02-11T05:05:28.285Z,79.62
2023-02-11T05:07:56.203Z,79.69
2023-02-11T05:10:24.088Z,79.86
2023-02-11T05:12:53.534Z,80.03
2023-02-11T05:15:23.298Z,80.16
2023-02-11T05:17:51.117Z,80.01
2023-02-11T05:20:18.964Z,79.87
2023-02-11T05:22:46.982Z,80.39
2023-02-11T05:25:14.803Z,79.83
2023-02-11T05:27:42.630Z,79.65
2023-02-11T05:30:11.401Z,79.57
2023-02-11T05:32:39.408Z,80.01
2023-02-11T05:35:08.158Z,79.84
2023-02-11T05:37:36.143Z,79.64
2023-02-11T05:40:05.371Z,79.57
2023-02-11T05:42:33.291Z,79.78
2023-02-11T05:45:01.216Z,79.41
2023-02-11T05:47:29.147Z,79.40
2023-02-11T05:49:57.073Z,79.49
2023-02-11T05:52:25.019Z,79.28
2023-02-11T05:54:52.933Z,79.12
2023-02-11T05:57:20.782Z,79.14
2023-02-11T05:59:48.696Z,79.46
2023-02-11T06:02:16.708Z,79.17
2023-02-11T06:04:44.833Z,79.49
2023-02-11T06:07:12.880Z,79.68
2023-02-11T06:09:40.815Z,79.53
2023-02-11T06:12:08.856Z,79.37
2023-02-11T06:14:36.783Z,79.24
2023-02-11T06:17:04.724Z,79.18
2023-02-11T06:19:32.551Z,79.10
2023-02-11T06:22:00.782Z,79.19
2023-02-11T06:24:51.357Z,78.99
2023-02-11T06:27:17.615Z,78.99
2023-02-11T06:29:46.653Z,78.93
2023-02-11T06:32:36.890Z,78.92
2023-02-11T06:35:02.527Z,78.93
2023-02-11T06:37:30.572Z,78.82
2023-02-11T06:39:58.610Z,78.70
2023-02-11T06:42:26.529Z,78.18
2023-02-11T06:44:54.488Z,78.57
2023-02-11T06:47:22.385Z,78.49
2023-02-11T06:49:50.327Z,78.17
2023-02-11T06:52:18.162Z,77.80
2023-02-11T06:54:46.289Z,77.98
2023-02-11T06:57:14.216Z,77.77
2023-02-11T06:59:42.147Z,77.36
2023-02-11T07:02:10.862Z,77.44
2023-02-11T07:04:38.826Z,77.24
2023-02-11T07:07:06.822Z,77.21
2023-02-11T07:09:34.685Z,77.15
2023-02-11T07:12:02.560Z,77.03
2023-02-11T07:14:30.525Z,76.36
2023-02-11T07:16:58.410Z,76.41
2023-02-11T07:19:26.275Z,76.02
2023-02-11T07:21:55.659Z,76.00
2023-02-11T07:24:23.589Z,75.86
2023-02-11T07:26:51.431Z,75.68
2023-02-11T07:29:19.297Z,75.65
2023-02-11T07:31:47.274Z,75.85
2023-02-11T07:34:15.412Z,75.50
2023-02-11T07:36:45.118Z,75.40
2023-02-11T07:39:13.740Z,75.67
2023-02-11T07:41:41.659Z,75.43
2023-02-11T07:44:10.015Z,75.55
2023-02-11T07:46:43.096Z,75.42
2023-02-11T07:49:12.341Z,75.65
2023-02-11T07:51:40.400Z,75.50
2023-02-11T07:54:10.309Z,75.65
2023-02-11T07:56:38.179Z,75.37
2023-02-11T07:59:06.152Z,75.43
2023-02-11T08:01:34.212Z,75.74
2023-02-11T08:04:03.727Z,75.38
2023-02-11T08:06:35.799Z,75.72
2023-02-11T08:09:09.688Z,75.92
2023-02-11T08:11:37.659Z,76.15
2023-02-11T08:14:05.941Z,76.09
2023-02-11T08:16:35.867Z,76.29
2023-02-11T08:19:10.496Z,76.14
2023-02-11T08:21:39.735Z,76.44
2023-02-11T08:24:08.259Z,76.56
2023-02-11T08:26:36.844Z,77.12
2023-02-11T08:29:09.638Z,77.57
2023-02-11T08:31:41.523Z,77.70
2023-02-11T08:34:11.642Z,77.98
2023-02-11T08:36:41.940Z,77.93
2023-02-11T08:39:20.125Z,78.17
2023-02-11T08:41:52.497Z,78.44
2023-02-11T08:44:21.630Z,78.61
2023-02-11T08:46:50.434Z,78.82
2023-02-11T08:49:18.874Z,79.33
2023-02-11T08:51:47.227Z,79.32
2023-02-11T08:54:15.846Z,79.67
2023-02-11T08:56:44.176Z,80.21
2023-02-11T08:59:15.446Z,82.32
2023-02-11T09:01:44.732Z,84.23
2023-02-11T09:04:13.269Z,84.54
2023-02-11T09:06:41.850Z,84.16
2023-02-11T09:09:16.487Z,84.05
2023-02-11T09:11:45.092Z,83.54
2023-02-11T09:14:19.537Z,83.95
2023-02-11T09:16:48.403Z,84.42
2023-02-11T09:19:17.332Z,83.97
2023-02-11T09:21:45.608Z,84.00
2023-02-11T09:24:13.438Z,83.70
2023-02-11T09:26:43.617Z,83.65
2023-02-11T09:29:11.638Z,83.90
2023-02-11T09:31:39.656Z,83.85
2023-02-11T09:34:08.428Z,83.86
2023-02-11T09:36:39.079Z,83.68
2023-02-11T09:39:11.837Z,83.61
2023-02-11T09:41:55.099Z,83.35
2023-02-11T09:44:29.579Z,83.09
2023-02-11T09:47:22.269Z,83.20
2023-02-11T09:50:00.235Z,83.22
2023-02-11T09:52:40.335Z,83.40
2023-02-11T09:55:36.513Z,83.41
2023-02-11T09:58:11.681Z,83.44
2023-02-11T10:01:04.442Z,83.39
2023-02-11T10:04:27.011Z,83.61
2023-02-11T10:07:14.673Z,83.56
2023-02-11T10:10:01.484Z,83.52
2023-02-11T10:12:32.176Z,83.67
2023-02-11T10:15:20.665Z,84.17
2023-02-11T10:18:20.110Z,84.27
2023-02-11T10:21:25.932Z,84.67
2023-02-11T10:23:59.310Z,84.94
2023-02-11T10:26:31.193Z,85.49
2023-02-11T10:29:04.310Z,86.23
2023-02-11T10:31:43.774Z,85.89
2023-02-11T10:34:14.753Z,85.81
2023-02-11T10:36:44.361Z,85.55
2023-02-11T10:39:26.041Z,85.73
2023-02-11T10:41:59.596Z,86.20
2023-02-11T10:44:33.938Z,86.57
2023-02-11T10:47:22.400Z,86.40
2023-02-11T10:49:50.389Z,86.34
2023-02-11T10:52:18.101Z,86.09
2023-02-11T10:55:04.346Z,86.43
2023-02-11T10:57:44.767Z,86.85
2023-02-11T11:00:18.641Z,87.30
2023-02-11T11:02:54.788Z,88.24
2023-02-11T11:05:32.170Z,88.36
2023-02-11T11:08:04.834Z,88.42
2023-02-11T11:10:47.030Z,88.23
2023-02-11T11:13:32.944Z,88.41
2023-02-11T11:16:16.050Z,87.99
2023-02-11T11:18:46.685Z,88.27
2023-02-11T11:21:20.726Z,88.09
2023-02-11T11:23:58.842Z,88.15
2023-02-11T11:26:40.326Z,88.06
2023-02-11T11:29:14.836Z,88.10
2023-02-11T11:31:50.239Z,88.12
2023-02-11T11:34:28.259Z,88.47
2023-02-11T11:36:59.269Z,88.46
2023-02-11T11:39:29.332Z,88.43
2023-02-11T11:42:03.436Z,88.60
2023-02-11T11:44:37.020Z,88.09
2023-02-11T11:47:28.672Z,88.42
2023-02-11T11:50:06.137Z,88.18
2023-02-11T11:52:46.205Z,88.48
2023-02-11T11:55:19.808Z,88.32
2023-02-11T11:57:49.095Z,88.34
2023-02-11T12:00:20.761Z,88.68
2023-02-11T12:02:57.875Z,88.59
2023-02-11T12:05:36.284Z,88.75
2023-02-11T12:08:14.428Z,88.45
2023-02-11T12:10:57.782Z,88.82
2023-02-11T12:13:25.660Z,89.11
2023-02-11T12:16:18.556Z,89.26
2023-02-11T12:18:55.683Z,89.95
2023-02-11T12:22:00.859Z,90.16
2023-02-11T12:24:34.837Z,89.93
2023-02-11T12:27:15.873Z,90.41
2023-02-11T12:30:08.800Z,90.29
2023-02-11T12:32:49.165Z,90.63
2023-02-11T12:35:17.001Z,90.78
2023-02-11T12:37:50.661Z,91.09
2023-02-11T12:40:26.138Z,90.95
2023-02-11T12:43:41.038Z,90.74
2023-02-11T12:46:21.495Z,90.83
2023-02-11T12:48:58.072Z,91.00
2023-02-11T12:52:03.493Z,91.14
2023-02-11T12:54:40.357Z,90.92
2023-02-11T12:57:20.304Z,90.88
2023-02-11T13:00:07.466Z,91.14
2023-02-11T13:02:51.273Z,91.07
2023-02-11T13:05:25.084Z,91.22
2023-02-11T13:07:57.523Z,91.10
2023-02-11T13:10:41.607Z,91.22
2023-02-11T13:13:23.774Z,91.22
2023-02-11T13:16:02.011Z,91.01
2023-02-11T13:18:52.398Z,91.09
2023-02-11T13:21:40.233Z,90.94
2023-02-11T13:24:22.454Z,91.08
2023-02-11T13:27:18.755Z,91.58
2023-02-11T13:30:27.248Z,91.24
2023-02-11T13:32:55.710Z,91.37
2023-02-11T13:35:47.918Z,91.21
2023-02-11T13:38:25.809Z,91.46
2023-02-11T13:41:15.891Z,91.68
2023-02-11T13:43:44.797Z,91.46
2023-02-11T13:46:15.172Z,91.50
2023-02-11T13:48:49.279Z,91.90
2023-02-11T13:51:34.392Z,91.84
2023-02-11T13:54:04.349Z,91.89
2023-02-11T13:56:32.192Z,91.97
2023-02-11T13:59:03.565Z,92.24
2023-02-11T14:02:20.358Z,92.25
2023-02-11T14:05:22.849Z,92.59
2023-02-11T14:08:43.149Z,92.92
2023-02-11T14:11:23.496Z,93.16
2023-02-11T14:13:51.248Z,93.13
2023-02-11T14:16:36.319Z,93.05
2023-02-11T14:19:06.513Z,93.09
2023-02-11T14:21:38.322Z,93.15
2023-02-11T14:24:07.378Z,93.16
2023-02-11T14:26:45.993Z,93.27
2023-02-11T14:29:39.268Z,93.21
2023-02-11T14:32:34.359Z,93.32
2023-02-11T14:35:13.178Z,93.47
2023-02-11T14:38:27.644Z,93.33
2023-02-11T14:41:27.393Z,92.96
2023-02-11T14:44:01.756Z,93.08
2023-02-11T14:46:30.848Z,93.30
2023-02-11T14:49:02.013Z,93.47
2023-02-11T14:51:35.018Z,93.08
2023-02-11T14:54:13.520Z,93.15
2023-02-11T14:56:42.413Z,93.17
2023-02-11T14:59:21.127Z,93.22
2023-02-11T15:01:52.111Z,93.49
2023-02-11T15:04:32.469Z,93.19
2023-02-11T15:07:06.315Z,93.52
2023-02-11T15:09:41.039Z,93.44
2023-02-11T15:12:20.297Z,93.63
2023-02-11T15:14:51.246Z,93.81
2023-02-11T15:17:29.332Z,93.87
2023-02-11T15:20:01.907Z,93.87
2023-02-11T15:22:34.280Z,93.84
2023-02-11T15:25:10.804Z,94.10
2023-02-11T15:27:50.244Z,93.91
2023-02-11T15:30:27.928Z,93.95
2023-02-11T15:33:00.170Z,94.14
2023-02-11T15:35:38.469Z,94.19
2023-02-11T15:38:07.320Z,94.48
2023-02-11T15:40:37.546Z,95.33
2023-02-11T15:43:08.475Z,96.13
2023-02-11T15:45:39.933Z,96.45
2023-02-11T15:48:13.818Z,96.40
2023-02-11T15:50:43.283Z,96.34
2023-02-11T15:53:17.260Z,96.52
2023-02-11T15:55:48.874Z,96.88
2023-02-11T15:58:17.117Z,96.68
2023-02-11T16:00:51.212Z,97.04
2023-02-11T16:03:22.620Z,97.33
2023-02-11T16:05:51.479Z,97.47
2023-02-11T16:08:22.502Z,97.81
2023-02-11T16:11:09.153Z,97.62
2023-02-11T16:13:46.482Z,97.22
2023-02-11T16:16:39.470Z,97.50
2023-02-11T16:19:19.932Z,97.40
2023-02-11T16:21:49.219Z,97.33
2023-02-11T16:24:30.225Z,97.30
2023-02-11T16:27:01.654Z,96.99
2023-02-11T16:29:32.493Z,97.15
2023-02-11T16:32:10.998Z,97.29
2023-02-11T16:34:38.959Z,97.12
2023-02-11T16:37:06.745Z,97.01
2023-02-11T16:39:34.871Z,97.01
2023-02-11T16:42:06.425Z,96.52
2023-02-11T16:44:35.977Z,96.60
2023-02-11T16:47:07.334Z,96.56
2023-02-11T16:49:43.447Z,96.38
2023-02-11T16:52:16.173Z,96.37
2023-02-11T16:54:44.310Z,96.10
2023-02-11T16:57:16.488Z,96.16
2023-02-11T16:59:45.087Z,96.20
2023-02-11T17:02:18.443Z,95.72
2023-02-11T17:04:47.071Z,96.07
2023-02-11T17:07:15.121Z,96.00
2023-02-11T17:09:43.054Z,96.03
2023-02-11T17:12:11.163Z,95.84
2023-02-11T17:14:39.218Z,95.75
2023-02-11T17:17:08.163Z,95.81
2023-02-11T17:19:36.189Z,95.78
2023-02-11T17:22:04.113Z,95.47
2023-02-11T17:24:32.611Z,95.61
2023-02-11T17:27:00.496Z,95.78
2023-02-11T17:29:28.461Z,95.46
2023-02-11T17:31:57.203Z,95.93
2023-02-11T17:34:25.525Z,96.06
2023-02-11T17:36:53.406Z,95.67
2023-02-11T17:39:21.386Z,95.72
2023-02-11T17:41:49.379Z,95.92
2023-02-11T17:44:18.059Z,95.97
2023-02-11T17:46:45.962Z,96.06
2023-02-11T17:49:13.956Z,96.12
2023-02-11T17:51:42.026Z,95.83
2023-02-11T17:54:15.762Z,95.90
2023-02-11T17:56:44.767Z,95.65
2023-02-11T17:59:13.825Z,95.63
2023-02-11T18:01:43.413Z,95.60
2023-02-11T18:04:19.160Z,95.38
2023-02-11T18:06:47.481Z,95.68
2023-02-11T18:09:15.302Z,95.36
2023-02-11T18:11:43.133Z,95.27
2023-02-11T18:14:11.765Z,95.46
2023-02-11T18:16:43.232Z,95.34
2023-02-11T18:19:12.688Z,95.43
2023-02-11T18:21:40.715Z,95.37
2023-02-11T18:24:08.720Z,95.55
2023-02-11T18:26:36.540Z,95.50
2023-02-11T18:29:07.109Z,95.63
2023-02-11T18:31:36.502Z,95.42
2023-02-11T18:34:07.663Z,95.42
2023-02-11T18:36:36.088Z,95.55
2023-02-11T18:39:05.180Z,95.72
2023-02-11T18:41:33.247Z,95.55
2023-02-11T18:44:03.403Z,95.70
2023-02-11T18:46:31.560Z,95.72
2023-02-11T18:48:59.508Z,95.54
2023-02-11T18:51:28.047Z,95.54
2023-02-11T18:53:55.945Z,95.54
2023-02-11T18:56:24.793Z,95.65
2023-02-11T18:58:52.717Z,95.42
2023-02-11T19:01:29.817Z,95.32
2023-02-11T19:04:00.020Z,95.40
2023-02-11T19:06:30.199Z,95.36
2023-02-11T19:09:01.189Z,95.39
2023-02-11T19:11:49.530Z,95.42
2023-02-11T19:14:21.407Z,95.49
2023-02-11T19:16:51.532Z,95.47
2023-02-11T19:19:22.253Z,95.75
2023-02-11T19:21:50.500Z,95.84
2023-02-11T19:24:20.181Z,95.66
2023-02-11T19:26:50.033Z,95.82
2023-02-11T19:29:18.317Z,95.54
2023-02-11T19:31:46.496Z,95.63
2023-02-11T19:34:16.641Z,95.80
2023-02-11T19:36:44.586Z,95.56
2023-02-11T19:39:13.258Z,95.60
2023-02-11T19:41:41.539Z,95.38
2023-02-11T19:44:10.041Z,95.54
2023-02-11T19:46:41.022Z,95.56
2023-02-11T19:49:11.377Z,95.44
2023-02-11T19:51:39.665Z,95.49
2023-02-11T19:54:08.108Z,95.54
2023-02-11T19:56:37.988Z,95.45
2023-02-11T19:59:09.056Z,95.35
2023-02-11T20:01:37.325Z,95.39
2023-02-11T20:04:06.459Z,95.30
2023-02-11T20:06:35.312Z,95.26
2023-02-11T20:09:06.905Z,95.11
2023-02-11T20:11:35.615Z,95.24
2023-02-11T20:14:05.211Z,95.09
2023-02-11T20:16:47.693Z,94.91
2023-02-11T20:19:20.098Z,94.77
2023-02-11T20:21:51.232Z,95.06
2023-02-11T20:24:20.146Z,94.91
2023-02-11T20:26:48.934Z,94.97
2023-02-11T20:29:17.913Z,94.71
2023-02-11T20:31:46.486Z,94.52
2023-02-11T20:34:17.773Z,94.50
2023-02-11T20:36:52.318Z,94.70
2023-02-11T20:39:22.673Z,94.58
2023-02-11T20:41:51.612Z,94.49
2023-02-11T20:44:21.845Z,94.62
2023-02-11T20:46:51.370Z,94.49
2023-02-11T20:49:22.294Z,94.45
2023-02-11T20:51:52.585Z,94.42
2023-02-11T20:54:22.053Z,94.53
2023-02-11T20:56:51.320Z,94.51
2023-02-11T20:59:20.968Z,94.28
2023-02-11T21:01:53.634Z,94.32
2023-02-11T21:04:27.051Z,94.03
2023-02-11T21:06:58.541Z,93.97
2023-02-11T21:09:30.108Z,94.02
2023-02-11T21:11:58.798Z,93.76
2023-02-11T21:14:27.421Z,93.87
2023-02-11T21:16:55.477Z,93.80
2023-02-11T21:19:23.745Z,93.73
2023-02-11T21:21:51.978Z,93.71
2023-02-11T21:24:20.116Z,93.55
2023-02-11T21:26:47.906Z,93.54
2023-02-11T21:29:16.209Z,93.53
2023-02-11T21:31:44.230Z,93.45
2023-02-11T21:34:12.226Z,93.62
2023-02-11T21:36:40.353Z,93.11
2023-02-11T21:39:09.145Z,92.94
2023-02-11T21:41:37.405Z,92.75
2023-02-11T21:44:05.606Z,92.66
2023-02-11T21:46:33.669Z,92.70
2023-02-11T21:49:01.899Z,92.58
2023-02-11T21:51:29.907Z,92.54
2023-02-11T21:54:01.333Z,92.55
2023-02-11T21:56:31.432Z,92.38
2023-02-11T21:59:00.575Z,92.43
2023-02-11T22:01:31.886Z,92.16
2023-02-11T22:04:00.413Z,91.94
2023-02-11T22:06:31.656Z,90.53
2023-02-11T22:09:04.200Z,89.54
2023-02-11T22:11:32.088Z,88.65
2023-02-11T22:14:00.126Z,87.94
2023-02-11T22:16:29.058Z,87.11
2023-02-11T22:18:58.793Z,86.75
2023-02-11T22:21:27.175Z,85.70
2023-02-11T22:23:56.368Z,85.59
2023-02-11T22:26:26.394Z,85.70
2023-02-11T22:28:55.983Z,84.95
2023-02-11T22:31:30.647Z,84.76
2023-02-11T22:33:59.577Z,84.58
2023-02-11T22:36:30.867Z,84.09
2023-02-11T22:39:07.921Z,83.61
2023-02-11T22:41:38.739Z,83.28
2023-02-11T22:44:07.012Z,83.36
2023-02-11T22:46:35.425Z,83.37
2023-02-11T22:49:04.696Z,83.49
2023-02-11T22:51:33.290Z,82.89
2023-02-11T22:54:03.954Z,82.84
2023-02-11T22:56:34.325Z,82.56
2023-02-11T22:59:05.115Z,82.34
2023-02-11T23:01:33.910Z,82.34
2023-02-11T23:04:03.653Z,82.21
2023-02-11T23:06:32.002Z,82.24
2023-02-11T23:09:00.241Z,82.33
2023-02-11T23:11:31.789Z,82.26
2023-02-11T23:14:01.582Z,81.79
2023-02-11T23:16:32.501Z,81.57
2023-02-11T23:19:03.972Z,81.35
2023-02-11T23:21:34.818Z,81.59
2023-02-11T23:24:10.459Z,81.47
2023-02-11T23:26:40.656Z,81.32
2023-02-11T23:29:09.599Z,80.43
2023-02-11T23:31:40.391Z,79.98
2023-02-11T23:34:09.285Z,79.75
2023-02-11T23:36:37.852Z,79.41
2023-02-11T23:39:05.789Z,78.90
2023-02-11T23:41:33.715Z,79.21
2023-02-11T23:44:01.684Z,79.26
2023-02-11T23:46:29.682Z,79.17
2023-02-11T23:48:57.904Z,78.78
2023-02-11T23:51:25.788Z,78.92
2023-02-11T23:53:56.142Z,78.87
2023-02-11T23:56:27.142Z,78.21
2023-02-11T23:58:57.188Z,78.49
